sensor_id;sensor_type;location;lat;lon;timestamp;pressure;altitude;pressure_sealevel;temperature;humidity
74334;BME280;62753;40.394;-80.022;2023-05-14T00:01:59;97745.08;;;26.61;34.30
74334;BME280;62753;40.394;-80.022;2023-05-14T00:04:24;97746.86;;;26.38;34.67
74334;BME280;62753;40.394;-80.022;2023-05-14T00:06:50;97749.56;;;26.46;34.68
74334;BME280;62753;40.394;-80.022;2023-05-14T00:09:15;97751.86;;;26.57;34.49
74334;BME280;62753;40.394;-80.022;2023-05-14T00:11:41;97757.64;;;26.30;34.59
74334;BME280;62753;40.394;-80.022;2023-05-14T00:14:07;97763.14;;;26.65;34.78
74334;BME280;62753;40.394;-80.022;2023-05-14T00:16:32;97771.15;;;26.19;34.64
74334;BME280;62753;40.394;-80.022;2023-05-14T00:18:57;97766.59;;;26.05;35.17
74334;BME280;62753;40.394;-80.022;2023-05-14T00:21:22;97766.53;;;26.03;35.46
74334;BME280;62753;40.394;-80.022;2023-05-14T00:23:48;97764.97;;;26.21;35.29
74334;BME280;62753;40.394;-80.022;2023-05-14T00:26:14;97763.51;;;26.05;35.55
74334;BME280;62753;40.394;-80.022;2023-05-14T00:28:39;97763.73;;;26.18;35.42
74334;BME280;62753;40.394;-80.022;2023-05-14T00:31:04;97769.81;;;25.88;35.34
74334;BME280;62753;40.394;-80.022;2023-05-14T00:33:30;97773.25;;;26.13;35.53
74334;BME280;62753;40.394;-80.022;2023-05-14T00:35:55;97778.54;;;26.08;36.18
74334;BME280;62753;40.394;-80.022;2023-05-14T00:38:20;97777.02;;;25.97;36.33
74334;BME280;62753;40.394;-80.022;2023-05-14T00:40:46;97777.79;;;25.89;36.10
74334;BME280;62753;40.394;-80.022;2023-05-14T00:43:12;97772.73;;;26.24;35.85
74334;BME280;62753;40.394;-80.022;2023-05-14T00:45:38;97772.45;;;25.91;36.10
74334;BME280;62753;40.394;-80.022;2023-05-14T00:48:03;97774.19;;;25.55;36.59
74334;BME280;62753;40.394;-80.022;2023-05-14T00:50:29;97779.54;;;25.91;36.27
74334;BME280;62753;40.394;-80.022;2023-05-14T00:52:54;97778.16;;;25.44;36.44
74334;BME280;62753;40.394;-80.022;2023-05-14T00:55:20;97773.85;;;26.40;35.94
74334;BME280;62753;40.394;-80.022;2023-05-14T00:57:45;97780.85;;;25.23;36.84
74334;BME280;62753;40.394;-80.022;2023-05-14T01:00:11;97786.31;;;25.41;36.94
74334;BME280;62753;40.394;-80.022;2023-05-14T01:02:36;97790.14;;;25.84;36.85
74334;BME280;62753;40.394;-80.022;2023-05-14T01:05:02;97789.79;;;25.27;37.25
74334;BME280;62753;40.394;-80.022;2023-05-14T01:07:32;97792.05;;;25.63;37.25
74334;BME280;62753;40.394;-80.022;2023-05-14T01:09:58;97799.35;;;25.18;37.40
74334;BME280;62753;40.394;-80.022;2023-05-14T01:12:23;97801.81;;;25.11;37.21
74334;BME280;62753;40.394;-80.022;2023-05-14T01:14:53;97807.41;;;25.85;36.89
74334;BME280;62753;40.394;-80.022;2023-05-14T01:17:11;97814.29;;;25.09;37.87
74334;BME280;62753;40.394;-80.022;2023-05-14T01:19:39;97814.94;;;25.52;37.11
74334;BME280;62753;40.394;-80.022;2023-05-14T01:22:01;97818.57;;;25.33;37.25
74334;BME280;62753;40.394;-80.022;2023-05-14T01:24:27;97816.71;;;26.25;36.31
74334;BME280;62753;40.394;-80.022;2023-05-14T01:26:53;97817.18;;;25.55;36.85
74334;BME280;62753;40.394;-80.022;2023-05-14T01:29:21;97819.84;;;25.82;36.70
74334;BME280;62753;40.394;-80.022;2023-05-14T01:31:44;97820.90;;;26.16;36.24
74334;BME280;62753;40.394;-80.022;2023-05-14T01:34:10;97817.41;;;25.73;36.72
74334;BME280;62753;40.394;-80.022;2023-05-14T01:36:34;97814.51;;;25.76;36.84
74334;BME280;62753;40.394;-80.022;2023-05-14T01:38:59;97818.43;;;25.36;37.31
74334;BME280;62753;40.394;-80.022;2023-05-14T01:41:25;97816.98;;;25.96;36.51
74334;BME280;62753;40.394;-80.022;2023-05-14T01:43:51;97819.30;;;26.07;36.41
74334;BME280;62753;40.394;-80.022;2023-05-14T01:46:17;97821.56;;;25.94;36.88
74334;BME280;62753;40.394;-80.022;2023-05-14T01:48:41;97821.21;;;25.74;36.60
74334;BME280;62753;40.394;-80.022;2023-05-14T01:51:07;97826.32;;;25.18;37.91
74334;BME280;62753;40.394;-80.022;2023-05-14T01:53:32;97836.20;;;24.69;37.60
74334;BME280;62753;40.394;-80.022;2023-05-14T01:55:58;97841.77;;;24.88;38.18
74334;BME280;62753;40.394;-80.022;2023-05-14T01:58:23;97845.27;;;25.02;37.63
74334;BME280;62753;40.394;-80.022;2023-05-14T02:00:49;97847.82;;;25.05;38.09
74334;BME280;62753;40.394;-80.022;2023-05-14T02:03:14;97847.01;;;24.91;37.99
74334;BME280;62753;40.394;-80.022;2023-05-14T02:05:40;97845.23;;;25.22;37.63
74334;BME280;62753;40.394;-80.022;2023-05-14T02:08:06;97835.92;;;24.62;38.11
74334;BME280;62753;40.394;-80.022;2023-05-14T02:10:31;97836.90;;;25.34;37.15
74334;BME280;62753;40.394;-80.022;2023-05-14T02:12:56;97838.07;;;25.09;37.23
74334;BME280;62753;40.394;-80.022;2023-05-14T02:15:22;97843.99;;;24.87;37.30
74334;BME280;62753;40.394;-80.022;2023-05-14T02:17:47;97841.35;;;25.31;36.69
74334;BME280;62753;40.394;-80.022;2023-05-14T02:20:14;97843.42;;;25.58;36.63
74334;BME280;62753;40.394;-80.022;2023-05-14T02:22:38;97845.52;;;24.93;37.50
74334;BME280;62753;40.394;-80.022;2023-05-14T02:25:05;97846.37;;;24.98;37.49
74334;BME280;62753;40.394;-80.022;2023-05-14T02:27:29;97844.44;;;24.78;37.54
74334;BME280;62753;40.394;-80.022;2023-05-14T02:29:55;97842.30;;;25.11;37.07
74334;BME280;62753;40.394;-80.022;2023-05-14T02:32:20;97841.82;;;25.25;36.99
74334;BME280;62753;40.394;-80.022;2023-05-14T02:34:45;97844.40;;;25.50;36.75
74334;BME280;62753;40.394;-80.022;2023-05-14T02:37:11;97851.33;;;25.18;36.99
74334;BME280;62753;40.394;-80.022;2023-05-14T02:39:36;97854.76;;;24.93;37.14
74334;BME280;62753;40.394;-80.022;2023-05-14T02:42:01;97855.72;;;25.20;37.51
74334;BME280;62753;40.394;-80.022;2023-05-14T02:44:26;97865.04;;;25.24;37.02
74334;BME280;62753;40.394;-80.022;2023-05-14T02:46:52;97869.44;;;24.92;37.50
74334;BME280;62753;40.394;-80.022;2023-05-14T02:49:17;97870.62;;;24.72;37.89
74334;BME280;62753;40.394;-80.022;2023-05-14T02:51:43;97865.32;;;25.18;37.31
74334;BME280;62753;40.394;-80.022;2023-05-14T02:54:08;97864.14;;;25.29;36.93
74334;BME280;62753;40.394;-80.022;2023-05-14T02:56:34;97861.28;;;25.03;36.95
74334;BME280;62753;40.394;-80.022;2023-05-14T02:58:59;97860.59;;;25.31;36.93
74334;BME280;62753;40.394;-80.022;2023-05-14T03:01:25;97864.10;;;25.19;36.83
74334;BME280;62753;40.394;-80.022;2023-05-14T03:03:50;97862.25;;;25.49;36.24
74334;BME280;62753;40.394;-80.022;2023-05-14T03:06:16;97859.00;;;25.37;36.56
74334;BME280;62753;40.394;-80.022;2023-05-14T03:08:41;97860.92;;;25.51;36.54
74334;BME280;62753;40.394;-80.022;2023-05-14T03:11:07;97863.58;;;25.14;36.56
74334;BME280;62753;40.394;-80.022;2023-05-14T03:13:32;97861.18;;;25.05;36.92
74334;BME280;62753;40.394;-80.022;2023-05-14T03:15:58;97862.56;;;25.45;35.93
74334;BME280;62753;40.394;-80.022;2023-05-14T03:18:23;97865.43;;;25.57;35.93
74334;BME280;62753;40.394;-80.022;2023-05-14T03:20:48;97867.13;;;25.68;36.01
74334;BME280;62753;40.394;-80.022;2023-05-14T03:23:14;97869.25;;;25.86;35.65
74334;BME280;62753;40.394;-80.022;2023-05-14T03:25:40;97867.78;;;26.09;35.10
74334;BME280;62753;40.394;-80.022;2023-05-14T03:28:05;97869.46;;;25.43;36.02
74334;BME280;62753;40.394;-80.022;2023-05-14T03:30:31;97872.46;;;25.43;35.73
74334;BME280;62753;40.394;-80.022;2023-05-14T03:32:55;97875.66;;;25.20;36.21
74334;BME280;62753;40.394;-80.022;2023-05-14T03:35:20;97878.01;;;24.69;37.01
74334;BME280;62753;40.394;-80.022;2023-05-14T03:37:46;97874.93;;;25.10;36.88
74334;BME280;62753;40.394;-80.022;2023-05-14T03:40:12;97870.17;;;25.29;36.81
74334;BME280;62753;40.394;-80.022;2023-05-14T03:42:37;97870.52;;;25.73;36.66
74334;BME280;62753;40.394;-80.022;2023-05-14T03:45:02;97868.27;;;25.30;36.61
74334;BME280;62753;40.394;-80.022;2023-05-14T03:47:28;97865.18;;;25.05;36.92
74334;BME280;62753;40.394;-80.022;2023-05-14T03:49:54;97862.10;;;25.03;36.68
74334;BME280;62753;40.394;-80.022;2023-05-14T03:52:20;97862.94;;;24.53;37.15
74334;BME280;62753;40.394;-80.022;2023-05-14T03:54:46;97861.38;;;24.93;36.78
74334;BME280;62753;40.394;-80.022;2023-05-14T03:57:11;97860.81;;;25.01;36.64
74334;BME280;62753;40.394;-80.022;2023-05-14T03:59:37;97862.51;;;24.72;36.45
74334;BME280;62753;40.394;-80.022;2023-05-14T04:02:03;97859.68;;;25.11;36.53
74334;BME280;62753;40.394;-80.022;2023-05-14T04:04:28;97858.75;;;24.99;36.89
74334;BME280;62753;40.394;-80.022;2023-05-14T04:06:53;97865.95;;;25.04;37.55
74334;BME280;62753;40.394;-80.022;2023-05-14T04:09:19;97870.12;;;24.99;37.68
74334;BME280;62753;40.394;-80.022;2023-05-14T04:11:45;97870.97;;;24.39;37.52
74334;BME280;62753;40.394;-80.022;2023-05-14T04:14:10;97872.13;;;24.76;37.86
74334;BME280;62753;40.394;-80.022;2023-05-14T04:16:36;97871.97;;;24.84;37.89
74334;BME280;62753;40.394;-80.022;2023-05-14T04:19:02;97874.67;;;24.69;38.12
74334;BME280;62753;40.394;-80.022;2023-05-14T04:21:27;97874.74;;;25.00;37.88
74334;BME280;62753;40.394;-80.022;2023-05-14T04:23:52;97873.92;;;24.52;38.32
74334;BME280;62753;40.394;-80.022;2023-05-14T04:26:17;97876.31;;;25.19;37.30
74334;BME280;62753;40.394;-80.022;2023-05-14T04:28:43;97876.58;;;24.56;38.28
74334;BME280;62753;40.394;-80.022;2023-05-14T04:31:08;97878.97;;;24.99;37.56
74334;BME280;62753;40.394;-80.022;2023-05-14T04:33:33;97882.52;;;25.00;37.32
74334;BME280;62753;40.394;-80.022;2023-05-14T04:35:59;97877.75;;;24.98;37.47
74334;BME280;62753;40.394;-80.022;2023-05-14T04:38:24;97878.23;;;24.97;37.33
74334;BME280;62753;40.394;-80.022;2023-05-14T04:40:49;97875.93;;;24.89;37.68
74334;BME280;62753;40.394;-80.022;2023-05-14T04:43:14;97876.05;;;24.66;38.04
74334;BME280;62753;40.394;-80.022;2023-05-14T04:45:40;97873.12;;;24.82;38.02
74334;BME280;62753;40.394;-80.022;2023-05-14T04:48:05;97872.95;;;24.54;37.60
74334;BME280;62753;40.394;-80.022;2023-05-14T04:50:30;97876.77;;;24.15;38.38
74334;BME280;62753;40.394;-80.022;2023-05-14T04:52:55;97880.91;;;24.46;38.15
74334;BME280;62753;40.394;-80.022;2023-05-14T04:55:21;97882.49;;;25.13;37.88
74334;BME280;62753;40.394;-80.022;2023-05-14T04:57:47;97888.01;;;24.69;37.93
74334;BME280;62753;40.394;-80.022;2023-05-14T05:00:13;97887.56;;;24.32;37.85
74334;BME280;62753;40.394;-80.022;2023-05-14T05:02:37;97888.00;;;24.46;38.49
74334;BME280;62753;40.394;-80.022;2023-05-14T05:05:03;97896.82;;;24.30;38.53
74334;BME280;62753;40.394;-80.022;2023-05-14T05:07:28;97895.43;;;24.59;38.08
74334;BME280;62753;40.394;-80.022;2023-05-14T05:09:53;97898.37;;;24.62;38.16
74334;BME280;62753;40.394;-80.022;2023-05-14T05:12:19;97901.72;;;24.13;39.09
74334;BME280;62753;40.394;-80.022;2023-05-14T05:14:45;97899.96;;;24.65;39.14
74334;BME280;62753;40.394;-80.022;2023-05-14T05:17:10;97894.80;;;24.15;39.16
74334;BME280;62753;40.394;-80.022;2023-05-14T05:19:36;97890.59;;;24.59;38.13
74334;BME280;62753;40.394;-80.022;2023-05-14T05:22:01;97884.60;;;24.73;38.06
74334;BME280;62753;40.394;-80.022;2023-05-14T05:24:27;97885.42;;;24.17;38.33
74334;BME280;62753;40.394;-80.022;2023-05-14T05:26:52;97884.99;;;24.27;38.59
74334;BME280;62753;40.394;-80.022;2023-05-14T05:29:18;97886.91;;;23.99;38.71
74334;BME280;62753;40.394;-80.022;2023-05-14T05:31:43;97887.67;;;24.78;38.04
74334;BME280;62753;40.394;-80.022;2023-05-14T05:34:09;97896.76;;;24.94;38.25
74334;BME280;62753;40.394;-80.022;2023-05-14T05:36:35;97896.24;;;24.46;38.54
74334;BME280;62753;40.394;-80.022;2023-05-14T05:39:01;97890.06;;;23.96;39.06
74334;BME280;62753;40.394;-80.022;2023-05-14T05:41:26;97886.83;;;23.75;39.21
74334;BME280;62753;40.394;-80.022;2023-05-14T05:43:52;97890.89;;;23.99;39.36
74334;BME280;62753;40.394;-80.022;2023-05-14T05:46:18;97891.05;;;24.45;39.01
74334;BME280;62753;40.394;-80.022;2023-05-14T05:48:43;97891.70;;;24.12;38.84
74334;BME280;62753;40.394;-80.022;2023-05-14T05:51:08;97895.44;;;24.13;38.78
74334;BME280;62753;40.394;-80.022;2023-05-14T05:53:34;97900.41;;;23.89;39.39
74334;BME280;62753;40.394;-80.022;2023-05-14T05:55:59;97904.44;;;23.78;39.44
74334;BME280;62753;40.394;-80.022;2023-05-14T05:58:25;97899.81;;;24.04;39.27
74334;BME280;62753;40.394;-80.022;2023-05-14T06:00:51;97894.10;;;23.76;39.70
74334;BME280;62753;40.394;-80.022;2023-05-14T06:03:16;97893.11;;;23.75;39.34
74334;BME280;62753;40.394;-80.022;2023-05-14T06:05:41;97890.01;;;23.55;39.47
74334;BME280;62753;40.394;-80.022;2023-05-14T06:08:06;97886.70;;;24.22;38.76
74334;BME280;62753;40.394;-80.022;2023-05-14T06:10:32;97891.38;;;24.11;39.21
74334;BME280;62753;40.394;-80.022;2023-05-14T06:12:57;97892.07;;;24.19;39.19
74334;BME280;62753;40.394;-80.022;2023-05-14T06:15:23;97895.38;;;24.41;38.48
74334;BME280;62753;40.394;-80.022;2023-05-14T06:17:48;97896.81;;;24.02;39.13
74334;BME280;62753;40.394;-80.022;2023-05-14T06:20:14;97891.76;;;23.78;39.14
74334;BME280;62753;40.394;-80.022;2023-05-14T06:22:38;97884.96;;;24.32;39.04
74334;BME280;62753;40.394;-80.022;2023-05-14T06:25:04;97892.76;;;23.36;38.81
74334;BME280;62753;40.394;-80.022;2023-05-14T06:27:29;97893.45;;;23.42;39.39
74334;BME280;62753;40.394;-80.022;2023-05-14T06:29:55;97897.99;;;23.85;39.98
74334;BME280;62753;40.394;-80.022;2023-05-14T06:32:20;97899.09;;;23.56;40.05
74334;BME280;62753;40.394;-80.022;2023-05-14T06:34:46;97895.94;;;23.16;40.59
74334;BME280;62753;40.394;-80.022;2023-05-14T06:37:11;97895.71;;;22.95;41.33
74334;BME280;62753;40.394;-80.022;2023-05-14T06:39:38;97895.91;;;23.00;41.34
74334;BME280;62753;40.394;-80.022;2023-05-14T06:42:02;97894.08;;;23.23;40.88
74334;BME280;62753;40.394;-80.022;2023-05-14T06:44:28;97899.14;;;22.95;40.96
74334;BME280;62753;40.394;-80.022;2023-05-14T06:46:53;97900.91;;;23.27;40.16
74334;BME280;62753;40.394;-80.022;2023-05-14T06:49:18;97902.17;;;23.09;39.98
74334;BME280;62753;40.394;-80.022;2023-05-14T06:51:44;97894.57;;;23.41;39.67
74334;BME280;62753;40.394;-80.022;2023-05-14T06:54:09;97892.97;;;22.70;39.71
74334;BME280;62753;40.394;-80.022;2023-05-14T06:56:35;97893.78;;;23.21;39.21
74334;BME280;62753;40.394;-80.022;2023-05-14T06:59:00;97892.66;;;23.25;38.86
74334;BME280;62753;40.394;-80.022;2023-05-14T07:01:25;97893.97;;;22.65;39.25
74334;BME280;62753;40.394;-80.022;2023-05-14T07:03:51;97897.76;;;23.38;38.53
74334;BME280;62753;40.394;-80.022;2023-05-14T07:06:17;97902.23;;;23.04;38.77
74334;BME280;62753;40.394;-80.022;2023-05-14T07:08:43;97906.17;;;23.46;38.19
74334;BME280;62753;40.394;-80.022;2023-05-14T07:11:09;97908.37;;;23.82;37.28
74334;BME280;62753;40.394;-80.022;2023-05-14T07:13:34;97909.88;;;23.89;37.31
74334;BME280;62753;40.394;-80.022;2023-05-14T07:15:59;97910.10;;;23.47;37.51
74334;BME280;62753;40.394;-80.022;2023-05-14T07:18:25;97909.44;;;23.84;37.06
74334;BME280;62753;40.394;-80.022;2023-05-14T07:20:50;97907.20;;;23.87;37.08
74334;BME280;62753;40.394;-80.022;2023-05-14T07:23:16;97904.60;;;23.74;37.31
74334;BME280;62753;40.394;-80.022;2023-05-14T07:25:41;97906.62;;;23.70;37.08
74334;BME280;62753;40.394;-80.022;2023-05-14T07:28:07;97901.83;;;23.65;36.67
74334;BME280;62753;40.394;-80.022;2023-05-14T07:30:32;97907.00;;;23.24;37.32
74334;BME280;62753;40.394;-80.022;2023-05-14T07:32:57;97912.73;;;23.66;36.30
74334;BME280;62753;40.394;-80.022;2023-05-14T07:35:22;97918.82;;;23.95;35.65
74334;BME280;62753;40.394;-80.022;2023-05-14T07:37:47;97918.91;;;23.29;35.25
74334;BME280;62753;40.394;-80.022;2023-05-14T07:40:13;97920.76;;;23.43;35.01
74334;BME280;62753;40.394;-80.022;2023-05-14T07:42:38;97924.42;;;23.14;34.56
74334;BME280;62753;40.394;-80.022;2023-05-14T07:45:05;97922.62;;;23.40;34.26
74334;BME280;62753;40.394;-80.022;2023-05-14T07:47:29;97927.77;;;23.57;34.41
74334;BME280;62753;40.394;-80.022;2023-05-14T07:49:55;97931.15;;;23.73;34.33
74334;BME280;62753;40.394;-80.022;2023-05-14T07:52:20;97930.56;;;23.55;34.98
74334;BME280;62753;40.394;-80.022;2023-05-14T07:54:45;97935.85;;;23.41;35.51
74334;BME280;62753;40.394;-80.022;2023-05-14T07:57:11;97937.61;;;23.45;35.82
74334;BME280;62753;40.394;-80.022;2023-05-14T07:59:36;97939.84;;;23.66;35.49
74334;BME280;62753;40.394;-80.022;2023-05-14T08:02:02;97942.70;;;23.39;35.35
74334;BME280;62753;40.394;-80.022;2023-05-14T08:04:27;97945.84;;;23.46;36.05
74334;BME280;62753;40.394;-80.022;2023-05-14T08:06:53;97948.71;;;23.14;35.36
74334;BME280;62753;40.394;-80.022;2023-05-14T08:09:19;97953.42;;;23.10;35.33
74334;BME280;62753;40.394;-80.022;2023-05-14T08:11:44;97955.35;;;23.29;34.92
74334;BME280;62753;40.394;-80.022;2023-05-14T08:14:09;97957.48;;;23.25;34.79
74334;BME280;62753;40.394;-80.022;2023-05-14T08:16:35;97957.42;;;23.29;34.54
74334;BME280;62753;40.394;-80.022;2023-05-14T08:19:00;97966.42;;;22.93;35.27
74334;BME280;62753;40.394;-80.022;2023-05-14T08:21:25;97967.25;;;22.63;35.68
74334;BME280;62753;40.394;-80.022;2023-05-14T08:23:51;97970.67;;;23.04;34.79
74334;BME280;62753;40.394;-80.022;2023-05-14T08:26:16;97969.89;;;22.93;34.43
74334;BME280;62753;40.394;-80.022;2023-05-14T08:28:41;97970.31;;;23.53;33.42
74334;BME280;62753;40.394;-80.022;2023-05-14T08:31:07;97971.67;;;23.50;33.55
74334;BME280;62753;40.394;-80.022;2023-05-14T08:33:33;97971.95;;;23.51;33.58
74334;BME280;62753;40.394;-80.022;2023-05-14T08:35:58;97972.00;;;23.89;32.85
74334;BME280;62753;40.394;-80.022;2023-05-14T08:38:24;97973.52;;;23.62;32.86
74334;BME280;62753;40.394;-80.022;2023-05-14T08:40:55;97978.44;;;23.77;32.06
74334;BME280;62753;40.394;-80.022;2023-05-14T08:43:16;97975.64;;;23.61;32.56
74334;BME280;62753;40.394;-80.022;2023-05-14T08:45:40;97977.38;;;23.58;32.41
74334;BME280;62753;40.394;-80.022;2023-05-14T08:48:06;97980.78;;;23.34;32.54
74334;BME280;62753;40.394;-80.022;2023-05-14T08:50:31;97979.45;;;23.37;32.06
74334;BME280;62753;40.394;-80.022;2023-05-14T08:52:55;97981.95;;;23.46;32.82
74334;BME280;62753;40.394;-80.022;2023-05-14T08:55:21;97983.19;;;22.97;32.21
74334;BME280;62753;40.394;-80.022;2023-05-14T08:57:46;97993.67;;;22.99;32.46
74334;BME280;62753;40.394;-80.022;2023-05-14T09:00:13;97992.61;;;23.05;32.04
74334;BME280;62753;40.394;-80.022;2023-05-14T09:02:39;97994.61;;;23.67;31.42
74334;BME280;62753;40.394;-80.022;2023-05-14T09:05:03;97994.70;;;23.92;31.79
74334;BME280;62753;40.394;-80.022;2023-05-14T09:07:28;97986.20;;;23.57;32.09
74334;BME280;62753;40.394;-80.022;2023-05-14T09:09:53;97985.16;;;22.71;31.81
74334;BME280;62753;40.394;-80.022;2023-05-14T09:12:18;97986.20;;;23.15;31.65
74334;BME280;62753;40.394;-80.022;2023-05-14T09:14:44;97987.18;;;23.46;30.91
74334;BME280;62753;40.394;-80.022;2023-05-14T09:17:09;97994.02;;;23.18;31.15
74334;BME280;62753;40.394;-80.022;2023-05-14T09:19:34;97995.25;;;22.84;31.61
74334;BME280;62753;40.394;-80.022;2023-05-14T09:22:00;97996.94;;;23.04;30.90
74334;BME280;62753;40.394;-80.022;2023-05-14T09:24:26;98004.16;;;23.32;30.30
74334;BME280;62753;40.394;-80.022;2023-05-14T09:26:53;98009.04;;;23.29;30.89
74334;BME280;62753;40.394;-80.022;2023-05-14T09:29:16;98008.32;;;23.05;31.92
74334;BME280;62753;40.394;-80.022;2023-05-14T09:31:42;98006.39;;;22.85;31.60
74334;BME280;62753;40.394;-80.022;2023-05-14T09:34:07;98011.45;;;23.20;31.40
74334;BME280;62753;40.394;-80.022;2023-05-14T09:36:34;98015.75;;;23.24;31.85
74334;BME280;62753;40.394;-80.022;2023-05-14T09:38:59;98019.36;;;22.69;32.11
74334;BME280;62753;40.394;-80.022;2023-05-14T09:41:23;98017.65;;;22.94;31.96
74334;BME280;62753;40.394;-80.022;2023-05-14T09:43:49;98018.65;;;22.87;32.12
74334;BME280;62753;40.394;-80.022;2023-05-14T09:46:15;98018.47;;;23.13;31.26
74334;BME280;62753;40.394;-80.022;2023-05-14T09:48:40;98014.64;;;22.59;32.21
74334;BME280;62753;40.394;-80.022;2023-05-14T09:51:06;98022.74;;;22.85;32.19
74334;BME280;62753;40.394;-80.022;2023-05-14T09:53:32;98027.69;;;22.22;32.48
74334;BME280;62753;40.394;-80.022;2023-05-14T09:55:57;98034.99;;;22.54;32.09
74334;BME280;62753;40.394;-80.022;2023-05-14T09:58:22;98040.56;;;22.07;32.75
74334;BME280;62753;40.394;-80.022;2023-05-14T10:00:48;98041.92;;;22.26;32.42
74334;BME280;62753;40.394;-80.022;2023-05-14T10:03:14;98043.62;;;22.59;31.96
74334;BME280;62753;40.394;-80.022;2023-05-14T10:05:40;98043.02;;;22.72;31.51
74334;BME280;62753;40.394;-80.022;2023-05-14T10:08:08;98046.83;;;22.47;31.86
74334;BME280;62753;40.394;-80.022;2023-05-14T10:10:30;98048.46;;;22.89;31.04
74334;BME280;62753;40.394;-80.022;2023-05-14T10:12:57;98044.74;;;22.77;30.51
74334;BME280;62753;40.394;-80.022;2023-05-14T10:15:25;98049.72;;;22.76;30.91
74334;BME280;62753;40.394;-80.022;2023-05-14T10:17:48;98050.20;;;22.83;31.12
74334;BME280;62753;40.394;-80.022;2023-05-14T10:20:14;98049.29;;;23.21;30.26
74334;BME280;62753;40.394;-80.022;2023-05-14T10:22:37;98048.26;;;23.12;30.54
74334;BME280;62753;40.394;-80.022;2023-05-14T10:25:02;98048.43;;;22.69;31.73
74334;BME280;62753;40.394;-80.022;2023-05-14T10:27:27;98054.38;;;22.47;31.42
74334;BME280;62753;40.394;-80.022;2023-05-14T10:29:53;98057.98;;;22.33;31.86
74334;BME280;62753;40.394;-80.022;2023-05-14T10:32:19;98056.54;;;21.84;32.39
74334;BME280;62753;40.394;-80.022;2023-05-14T10:34:43;98057.20;;;21.86;32.52
74334;BME280;62753;40.394;-80.022;2023-05-14T10:37:10;98056.34;;;22.30;31.69
74334;BME280;62753;40.394;-80.022;2023-05-14T10:39:42;98057.21;;;22.42;31.21
74334;BME280;62753;40.394;-80.022;2023-05-14T10:42:00;98057.82;;;22.76;31.22
74334;BME280;62753;40.394;-80.022;2023-05-14T10:44:26;98060.53;;;22.42;31.12
74334;BME280;62753;40.394;-80.022;2023-05-14T10:46:51;98062.93;;;22.24;31.64
74334;BME280;62753;40.394;-80.022;2023-05-14T10:49:16;98069.40;;;22.68;30.28
74334;BME280;62753;40.394;-80.022;2023-05-14T10:51:41;98068.24;;;22.67;30.86
74334;BME280;62753;40.394;-80.022;2023-05-14T10:54:08;98067.55;;;22.39;30.58
74334;BME280;62753;40.394;-80.022;2023-05-14T10:56:32;98071.76;;;22.59;30.62
74334;BME280;62753;40.394;-80.022;2023-05-14T10:58:57;98068.74;;;22.49;31.00
74334;BME280;62753;40.394;-80.022;2023-05-14T11:01:23;98065.22;;;22.64;30.79
74334;BME280;62753;40.394;-80.022;2023-05-14T11:03:52;98065.64;;;22.25;31.42
74334;BME280;62753;40.394;-80.022;2023-05-14T11:06:14;98064.79;;;22.52;31.02
74334;BME280;62753;40.394;-80.022;2023-05-14T11:08:39;98061.07;;;22.20;31.20
74334;BME280;62753;40.394;-80.022;2023-05-14T11:11:05;98059.85;;;21.93;31.76
74334;BME280;62753;40.394;-80.022;2023-05-14T11:13:29;98062.65;;;22.44;31.63
74334;BME280;62753;40.394;-80.022;2023-05-14T11:15:55;98064.16;;;21.63;32.72
74334;BME280;62753;40.394;-80.022;2023-05-14T11:18:26;98067.11;;;22.15;33.09
74334;BME280;62753;40.394;-80.022;2023-05-14T11:20:46;98070.02;;;22.31;32.39
74334;BME280;62753;40.394;-80.022;2023-05-14T11:23:11;98072.90;;;22.49;32.28
74334;BME280;62753;40.394;-80.022;2023-05-14T11:25:36;98071.31;;;22.07;32.11
74334;BME280;62753;40.394;-80.022;2023-05-14T11:28:02;98073.89;;;22.32;32.03
74334;BME280;62753;40.394;-80.022;2023-05-14T11:30:27;98076.66;;;22.92;31.93
74334;BME280;62753;40.394;-80.022;2023-05-14T11:32:52;98078.96;;;22.77;31.94
74334;BME280;62753;40.394;-80.022;2023-05-14T11:35:18;98082.34;;;22.67;31.54
74334;BME280;62753;40.394;-80.022;2023-05-14T11:37:47;98084.88;;;22.72;31.68
74334;BME280;62753;40.394;-80.022;2023-05-14T11:40:13;98087.08;;;22.51;31.07
74334;BME280;62753;40.394;-80.022;2023-05-14T11:42:34;98086.58;;;22.91;31.24
74334;BME280;62753;40.394;-80.022;2023-05-14T11:44:59;98085.35;;;22.53;32.29
74334;BME280;62753;40.394;-80.022;2023-05-14T11:47:24;98090.70;;;22.60;31.92
74334;BME280;62753;40.394;-80.022;2023-05-14T11:49:50;98085.92;;;22.85;31.77
74334;BME280;62753;40.394;-80.022;2023-05-14T11:52:16;98084.18;;;23.18;31.56
74334;BME280;62753;40.394;-80.022;2023-05-14T11:54:42;98083.47;;;23.34;30.94
74334;BME280;62753;40.394;-80.022;2023-05-14T11:57:09;98081.87;;;23.10;31.47
74334;BME280;62753;40.394;-80.022;2023-05-14T11:59:33;98076.01;;;22.29;32.42
74334;BME280;62753;40.394;-80.022;2023-05-14T12:01:58;98074.55;;;22.89;32.49
74334;BME280;62753;40.394;-80.022;2023-05-14T12:04:24;98071.00;;;21.71;33.09
74334;BME280;62753;40.394;-80.022;2023-05-14T12:06:49;98071.47;;;22.67;32.91
74334;BME280;62753;40.394;-80.022;2023-05-14T12:09:16;98076.74;;;21.83;32.82
74334;BME280;62753;40.394;-80.022;2023-05-14T12:11:40;98081.59;;;22.09;33.48
74334;BME280;62753;40.394;-80.022;2023-05-14T12:14:10;98088.30;;;21.87;33.52
74334;BME280;62753;40.394;-80.022;2023-05-14T12:16:30;98090.35;;;21.72;33.93
74334;BME280;62753;40.394;-80.022;2023-05-14T12:18:59;98087.40;;;22.12;32.71
74334;BME280;62753;40.394;-80.022;2023-05-14T12:20:55;98087.00;;;21.18;33.87
74334;BME280;62753;40.394;-80.022;2023-05-14T12:23:24;98091.57;;;22.61;32.74
74334;BME280;62753;40.394;-80.022;2023-05-14T12:25:49;98099.38;;;23.14;32.17
74334;BME280;62753;40.394;-80.022;2023-05-14T12:28:14;98099.25;;;23.35;31.40
74334;BME280;62753;40.394;-80.022;2023-05-14T12:30:37;98097.66;;;22.94;31.10